Time;durP1;ratioP1;P1;durP2;ratioP2;P2;SDS_P1;SDS_P2;PMS_P1;PMS_P2;Temp;Humidity;BMP_temperature;BMP_pressure;BME280_temperature;BME280_humidity;BME280_pressure;Samples;Min_cycle;Max_cycle;Signal;HPM_P1;HPM_P2
2022/10/29 00:00:21;;;;;;;12.13;3.90;;;13.90;99.90;;;;;;4922593;29;20043;-80
2022/10/29 00:02:47;;;;;;;14.60;4.38;;;13.90;99.90;;;;;;4922105;29;20130;-82
2022/10/29 00:05:13;;;;;;;13.57;5.30;;;13.90;99.90;;;;;;4922830;29;20484;-82
2022/10/29 00:07:39;;;;;;;17.15;5.22;;;13.80;99.90;;;;;;4922599;29;20060;-82
2022/10/29 00:10:05;;;;;;;18.48;4.88;;;13.80;99.90;;;;;;4922097;29;20043;-82
2022/10/29 00:12:31;;;;;;;16.02;4.80;;;13.80;99.90;;;;;;4922334;29;20371;-81
2022/10/29 00:14:57;;;;;;;17.42;4.38;;;13.80;99.90;;;;;;4937605;29;20043;-81
2022/10/29 00:17:23;;;;;;;11.95;4.78;;;13.70;99.90;;;;;;4906216;29;20400;-81
2022/10/29 00:19:48;;;;;;;16.00;4.78;;;13.70;99.90;;;;;;4938553;29;20121;-80
2022/10/29 00:22:14;;;;;;;17.55;4.80;;;13.70;99.90;;;;;;4918639;29;20040;-81
2022/10/29 00:24:40;;;;;;;19.88;5.22;;;13.60;99.90;;;;;;4914911;29;20049;-81
2022/10/29 00:27:06;;;;;;;13.95;4.43;;;13.60;99.90;;;;;;4922258;29;20043;-81
2022/10/29 00:29:31;;;;;;;16.38;4.53;;;13.50;99.90;;;;;;4907117;29;20046;-82
2022/10/29 00:31:57;;;;;;;17.35;4.45;;;13.50;99.90;;;;;;4924702;29;20102;-81
2022/10/29 00:34:23;;;;;;;18.70;4.68;;;13.50;99.90;;;;;;4925603;29;20079;-81
2022/10/29 00:36:48;;;;;;;17.25;4.82;;;13.50;99.90;;;;;;4909835;29;20039;-81
2022/10/29 00:39:15;;;;;;;13.63;4.35;;;13.50;99.90;;;;;;4925543;29;20043;-81
2022/10/29 00:41:41;;;;;;;16.85;4.10;;;13.40;99.90;;;;;;4938066;29;20043;-81
2022/10/29 00:44:19;;;;;;;13.95;4.05;;;13.50;99.90;;;;;;4906139;29;20130;-81
2022/10/29 00:46:49;;;;;;;13.18;4.60;;;13.40;99.90;;;;;;4921940;29;20058;-81
2022/10/29 00:49:15;;;;;;;12.75;4.32;;;13.40;99.90;;;;;;4938141;29;20078;-81
2022/10/29 00:51:42;;;;;;;14.20;3.97;;;13.30;99.90;;;;;;4922449;29;20079;-80
2022/10/29 00:54:10;;;;;;;15.43;4.38;;;13.30;99.90;;;;;;4922017;29;20075;-81
2022/10/29 00:56:40;;;;;;;10.95;3.97;;;13.30;99.90;;;;;;4938595;29;20032;-81
2022/10/29 00:59:07;;;;;;;14.65;4.53;;;13.30;99.90;;;;;;4941044;29;20086;-81
2022/10/29 01:01:34;;;;;;;13.95;4.03;;;13.30;99.90;;;;;;4924849;29;20126;-80
2022/10/29 01:04:00;;;;;;;11.57;3.83;;;13.20;99.90;;;;;;4940675;29;20042;-80
2022/10/29 01:06:28;;;;;;;12.98;4.45;;;13.20;99.90;;;;;;4921975;29;20393;-81
2022/10/29 01:08:54;;;;;;;13.70;4.18;;;13.20;99.90;;;;;;4921942;29;20396;-82
2022/10/29 01:11:41;;;;;;;13.07;4.57;;;13.10;99.90;;;;;;4937351;29;20044;-80
2022/10/29 01:14:34;;;;;;;16.05;3.90;;;13.10;99.90;;;;;;4921546;29;20055;-81
2022/10/29 01:17:22;;;;;;;15.63;4.70;;;13.10;99.90;;;;;;4937738;29;20091;-81
2022/10/29 01:20:13;;;;;;;14.38;4.40;;;13.00;99.90;;;;;;4938095;29;20040;-81
2022/10/29 01:22:48;;;;;;;13.82;4.63;;;12.90;99.90;;;;;;4921074;29;20086;-82
2022/10/29 01:25:51;;;;;;;13.23;5.03;;;12.90;99.90;;;;;;4950499;29;20078;-82
2022/10/29 01:28:46;;;;;;;11.10;4.20;;;12.80;99.90;;;;;;4936763;29;20051;-81
2022/10/29 01:31:26;;;;;;;17.77;5.15;;;12.80;99.90;;;;;;4945207;28;20555;-81
2022/10/29 01:33:52;;;;;;;14.02;6.50;;;12.80;99.90;;;;;;4956044;29;20058;-82
2022/10/29 01:36:33;;;;;;;14.68;5.10;;;12.80;99.90;;;;;;4954815;29;20047;-81
2022/10/29 01:39:17;;;;;;;15.73;5.15;;;12.80;99.90;;;;;;4956044;29;20043;-81
2022/10/29 01:41:46;;;;;;;11.05;5.15;;;12.70;99.90;;;;;;4961703;28;21647;-81
2022/10/29 01:44:24;;;;;;;12.45;5.03;;;12.70;99.90;;;;;;4940390;29;20035;-81
2022/10/29 01:46:58;;;;;;;13.10;4.65;;;12.70;99.90;;;;;;4932704;29;20039;-81
2022/10/29 01:49:31;;;;;;;10.25;4.53;;;12.70;99.90;;;;;;4955797;29;20094;-80
2022/10/29 01:52:00;;;;;;;13.50;5.38;;;12.70;99.90;;;;;;4954709;29;20403;-81
2022/10/29 01:54:26;;;;;;;12.43;4.90;;;12.70;99.90;;;;;;4924682;29;20047;-81
2022/10/29 01:56:55;;;;;;;13.77;4.82;;;12.70;99.90;;;;;;4940145;29;20074;-81
2022/10/29 01:59:24;;;;;;;11.70;5.32;;;12.70;99.90;;;;;;4939228;28;20090;-81
2022/10/29 02:02:19;;;;;;;16.23;5.93;;;12.70;99.90;;;;;;4939268;29;20073;-81
2022/10/29 02:05:09;;;;;;;16.50;5.72;;;12.70;99.90;;;;;;4950660;28;20042;-81
2022/10/29 02:07:50;;;;;;;17.45;5.90;;;12.70;99.90;;;;;;4939391;28;20071;-81
2022/10/29 02:10:42;;;;;;;20.65;6.47;;;12.60;99.90;;;;;;4939815;29;20126;-81
2022/10/29 02:13:10;;;;;;;12.20;5.80;;;12.60;99.90;;;;;;4955242;29;20042;-81
2022/10/29 02:15:47;;;;;;;16.60;5.90;;;12.50;99.90;;;;;;4922747;29;20086;-82
2022/10/29 02:18:13;;;;;;;20.38;6.63;;;12.60;99.90;;;;;;4931271;29;20069;-82
2022/10/29 02:20:43;;;;;;;20.63;5.72;;;12.60;99.90;;;;;;4923258;29;20045;-82
2022/10/29 02:23:09;;;;;;;15.70;6.15;;;12.50;99.90;;;;;;4939020;29;20045;-82
2022/10/29 02:25:35;;;;;;;14.15;5.82;;;12.50;99.90;;;;;;4955310;29;20038;-82
2022/10/29 02:28:01;;;;;;;21.17;5.78;;;12.50;99.90;;;;;;4939069;29;20069;-82
2022/10/29 02:30:27;;;;;;;17.25;6.05;;;12.50;99.90;;;;;;4939253;29;20467;-82
2022/10/29 02:32:53;;;;;;;17.45;6.15;;;12.50;99.90;;;;;;4938046;29;20109;-82
2022/10/29 02:35:18;;;;;;;11.70;5.03;;;12.50;99.90;;;;;;4922991;29;20051;-82
2022/10/29 02:37:44;;;;;;;16.33;5.78;;;12.40;99.90;;;;;;4923249;29;20040;-83
2022/10/29 02:40:10;;;;;;;15.27;6.03;;;12.40;99.90;;;;;;4919800;29;20040;-82
2022/10/29 02:42:36;;;;;;;12.48;5.13;;;12.40;99.90;;;;;;4938702;28;20054;-82
2022/10/29 02:45:02;;;;;;;12.32;5.05;;;12.40;99.90;;;;;;4922857;28;20047;-83
2022/10/29 02:47:28;;;;;;;13.13;5.00;;;12.40;99.90;;;;;;4938462;29;20074;-82
2022/10/29 02:49:54;;;;;;;13.63;5.18;;;12.40;99.90;;;;;;4922700;29;20066;-82
2022/10/29 02:52:19;;;;;;;11.70;5.00;;;12.40;99.90;;;;;;4921674;29;20050;-82
2022/10/29 02:54:45;;;;;;;15.82;5.47;;;12.40;99.90;;;;;;4952893;29;20044;-82
2022/10/29 02:57:11;;;;;;;13.23;5.82;;;12.40;99.90;;;;;;4938402;29;20077;-82
2022/10/29 02:59:36;;;;;;;19.40;5.72;;;12.40;99.90;;;;;;4906938;29;20521;-82
2022/10/29 03:02:02;;;;;;;14.68;6.18;;;12.40;99.90;;;;;;4922979;28;20043;-82
2022/10/29 03:04:28;;;;;;;13.57;5.93;;;12.40;99.90;;;;;;4922842;29;20049;-81
2022/10/29 03:06:54;;;;;;;18.40;5.80;;;12.30;99.90;;;;;;4938520;29;20078;-81
2022/10/29 03:09:19;;;;;;;10.90;5.60;;;12.30;99.90;;;;;;4938351;29;20070;-81
2022/10/29 03:11:45;;;;;;;13.25;5.47;;;12.30;99.90;;;;;;4923124;29;20043;-81
2022/10/29 03:14:11;;;;;;;17.23;5.93;;;12.30;99.90;;;;;;4906790;29;20404;-81
2022/10/29 03:16:37;;;;;;;17.27;6.20;;;12.30;99.90;;;;;;4906748;29;20118;-81
2022/10/29 03:19:02;;;;;;;51.53;7.25;;;12.30;99.90;;;;;;4938538;29;20495;-81
2022/10/29 03:21:28;;;;;;;46.50;7.20;;;12.30;99.90;;;;;;4938514;29;20483;-81
2022/10/29 03:23:54;;;;;;;77.82;6.82;;;12.30;99.90;;;;;;4939092;29;20039;-82
2022/10/29 03:26:19;;;;;;;36.55;7.18;;;12.30;99.90;;;;;;4922888;29;20074;-81
2022/10/29 03:28:45;;;;;;;37.92;7.30;;;12.20;99.90;;;;;;4935478;29;20039;-81
2022/10/29 03:31:11;;;;;;;73.18;6.47;;;12.30;99.90;;;;;;4934784;29;20054;-81
2022/10/29 03:33:37;;;;;;;41.80;6.95;;;12.20;99.90;;;;;;4928193;29;20125;-81
2022/10/29 03:36:05;;;;;;;61.20;6.85;;;12.20;99.90;;;;;;4955145;29;20046;-81
2022/10/29 03:38:31;;;;;;;55.65;6.50;;;12.20;99.90;;;;;;4947301;29;20110;-81
2022/10/29 03:40:57;;;;;;;55.70;6.07;;;12.20;99.90;;;;;;4939771;29;20047;-81
2022/10/29 03:43:23;;;;;;;47.60;6.07;;;12.20;99.90;;;;;;4920261;29;20136;-81
2022/10/29 03:45:53;;;;;;;21.52;5.90;;;12.20;99.90;;;;;;4922596;29;20082;-81
2022/10/29 03:48:20;;;;;;;47.17;5.82;;;12.10;99.90;;;;;;4938099;29;20082;-81
2022/10/29 03:50:54;;;;;;;25.38;5.03;;;12.10;99.90;;;;;;4935004;29;20105;-82
2022/10/29 03:53:20;;;;;;;38.80;5.70;;;12.10;99.90;;;;;;4950873;29;20391;-82
2022/10/29 03:55:46;;;;;;;16.50;5.13;;;12.00;99.90;;;;;;4937615;29;20046;-82
2022/10/29 03:58:11;;;;;;;21.90;5.05;;;12.00;99.90;;;;;;4906815;29;20411;-81
2022/10/29 04:00:37;;;;;;;22.35;4.88;;;12.00;99.90;;;;;;4937942;29;20036;-81
2022/10/29 04:03:03;;;;;;;39.75;5.45;;;12.00;99.90;;;;;;4921867;28;20062;-81
2022/10/29 04:05:28;;;;;;;53.40;6.63;;;12.00;99.90;;;;;;4935851;29;20094;-81
2022/10/29 04:07:54;;;;;;;18.48;5.10;;;12.10;99.90;;;;;;4923806;28;20082;-81
2022/10/29 04:10:20;;;;;;;24.35;5.70;;;12.00;99.90;;;;;;4941420;29;20047;-81
2022/10/29 04:12:46;;;;;;;69.55;6.43;;;12.00;99.90;;;;;;4922814;29;20048;-81
2022/10/29 04:15:11;;;;;;;134.60;7.82;;;12.00;99.90;;;;;;4909989;29;20043;-81
2022/10/29 04:17:37;;;;;;;73.95;6.30;;;12.00;99.90;;;;;;4925774;29;20451;-81
2022/10/29 04:20:03;;;;;;;75.93;6.95;;;12.00;99.90;;;;;;4927656;29;20090;-81
2022/10/29 04:22:29;;;;;;;57.33;6.47;;;11.90;99.90;;;;;;4925975;29;20043;-80
2022/10/29 04:24:55;;;;;;;65.80;7.05;;;11.90;99.90;;;;;;4941630;29;20047;-81
2022/10/29 04:27:20;;;;;;;76.90;7.25;;;11.90;99.90;;;;;;4908165;29;20547;-81
2022/10/29 04:29:46;;;;;;;112.45;7.10;;;11.90;99.90;;;;;;4907571;29;20082;-84
2022/10/29 04:32:12;;;;;;;81.45;7.60;;;11.80;99.90;;;;;;4925103;29;20062;-82
2022/10/29 04:34:38;;;;;;;70.88;7.32;;;11.80;99.90;;;;;;4925301;29;20407;-81
2022/10/29 04:37:03;;;;;;;84.32;6.50;;;11.80;99.90;;;;;;4925927;29;20039;-82
2022/10/29 04:39:29;;;;;;;52.88;6.60;;;11.80;99.90;;;;;;4938012;29;20383;-82
2022/10/29 04:41:55;;;;;;;50.97;5.78;;;11.70;99.90;;;;;;4922290;29;20044;-82
2022/10/29 04:44:20;;;;;;;41.10;5.93;;;11.70;99.90;;;;;;4924337;29;20049;-82
2022/10/29 04:46:46;;;;;;;38.70;6.13;;;11.70;99.90;;;;;;4909108;29;20047;-82
2022/10/29 04:49:12;;;;;;;38.42;6.15;;;11.70;99.90;;;;;;4940896;29;20043;-83
2022/10/29 04:51:38;;;;;;;44.28;6.47;;;11.70;99.90;;;;;;4922649;29;20098;-81
2022/10/29 04:54:03;;;;;;;51.42;6.88;;;11.70;99.90;;;;;;4940980;29;20050;-81
2022/10/29 04:56:30;;;;;;;30.73;7.00;;;11.60;99.90;;;;;;4924873;29;20483;-82
2022/10/29 04:58:55;;;;;;;30.23;6.82;;;11.60;99.90;;;;;;4941016;29;20040;-82
2022/10/29 05:01:21;;;;;;;46.00;7.25;;;11.70;99.90;;;;;;4940863;29;20094;-81
2022/10/29 05:03:46;;;;;;;44.78;7.85;;;11.60;99.90;;;;;;4924634;29;20046;-81
2022/10/29 05:06:12;;;;;;;50.72;7.55;;;11.60;99.90;;;;;;4924685;29;20050;-81
2022/10/29 05:08:38;;;;;;;66.85;8.00;;;11.60;99.90;;;;;;4952850;29;20436;-81
2022/10/29 05:11:04;;;;;;;122.13;10.52;;;11.60;99.90;;;;;;4928298;29;20075;-81
2022/10/29 05:13:30;;;;;;;47.75;7.88;;;11.60;99.90;;;;;;4920960;29;20499;-82
2022/10/29 05:15:56;;;;;;;73.03;8.82;;;11.70;99.90;;;;;;4917566;29;20039;-82
2022/10/29 05:18:22;;;;;;;60.97;8.88;;;11.70;99.90;;;;;;4908414;29;20502;-82
2022/10/29 05:20:51;;;;;;;59.20;8.88;;;11.70;99.90;;;;;;4955808;29;20039;-81
2022/10/29 05:23:17;;;;;;;56.65;8.73;;;12.00;99.90;;;;;;4939454;29;20428;-82
2022/10/29 05:25:45;;;;;;;84.47;10.38;;;11.70;99.90;;;;;;4905370;29;20047;-81
2022/10/29 05:28:13;;;;;;;86.75;9.82;;;11.80;99.90;;;;;;4920550;29;20051;-81
2022/10/29 05:30:40;;;;;;;44.88;9.30;;;11.80;99.90;;;;;;4936870;29;20040;-82
2022/10/29 05:33:07;;;;;;;37.35;9.73;;;11.80;99.90;;;;;;4912031;29;20051;-81
2022/10/29 05:35:34;;;;;;;29.05;9.85;;;11.80;99.90;;;;;;4956104;29;20078;-81
2022/10/29 05:38:00;;;;;;;42.42;10.00;;;11.90;99.90;;;;;;4940122;29;20054;-82
2022/10/29 05:40:26;;;;;;;50.00;11.00;;;12.10;99.90;;;;;;4939792;29;20518;-81
2022/10/29 05:42:52;;;;;;;24.65;10.70;;;11.90;99.90;;;;;;4940081;29;20046;-81
2022/10/29 05:45:18;;;;;;;39.97;11.23;;;11.90;99.90;;;;;;4930818;29;20483;-81
2022/10/29 05:47:44;;;;;;;30.30;10.73;;;12.00;99.90;;;;;;4932156;29;20086;-82
2022/10/29 05:50:11;;;;;;;23.25;11.10;;;12.00;99.90;;;;;;4920531;29;20043;-82
2022/10/29 05:52:37;;;;;;;27.00;11.57;;;12.00;99.90;;;;;;4936659;29;20047;-82
2022/10/29 05:55:03;;;;;;;19.13;11.00;;;12.00;99.90;;;;;;4911069;29;20089;-82
2022/10/29 05:57:29;;;;;;;25.13;12.13;;;12.00;99.90;;;;;;4939482;29;20040;-81
2022/10/29 05:59:55;;;;;;;22.73;11.63;;;12.10;99.90;;;;;;4923240;29;20062;-81
2022/10/29 06:02:20;;;;;;;22.30;11.63;;;12.10;99.90;;;;;;4907977;29;20042;-81
2022/10/29 06:04:46;;;;;;;27.70;12.35;;;12.10;99.90;;;;;;4907856;29;20047;-82
2022/10/29 06:07:12;;;;;;;34.65;12.73;;;12.00;99.90;;;;;;4922824;29;20109;-82
2022/10/29 06:09:37;;;;;;;21.90;11.77;;;12.10;99.90;;;;;;4917439;29;20066;-81
2022/10/29 06:12:04;;;;;;;24.98;12.65;;;12.10;99.90;;;;;;4921080;29;20408;-84
2022/10/29 06:14:30;;;;;;;19.40;11.73;;;12.10;99.90;;;;;;4927138;29;20055;-82
2022/10/29 06:16:55;;;;;;;48.70;13.30;;;12.10;99.90;;;;;;4938944;29;20058;-81
2022/10/29 06:19:21;;;;;;;25.30;12.13;;;12.10;99.90;;;;;;4904753;29;20039;-81
2022/10/29 06:21:47;;;;;;;32.80;13.57;;;12.10;99.90;;;;;;4916766;29;20094;-81
2022/10/29 06:24:12;;;;;;;41.90;13.15;;;12.10;99.90;;;;;;4907468;29;20069;-81
2022/10/29 06:26:39;;;;;;;41.83;14.52;;;12.10;99.90;;;;;;4923170;29;20047;-81
2022/10/29 06:29:05;;;;;;;29.77;12.82;;;12.10;99.90;;;;;;4919085;29;20510;-81
2022/10/29 06:31:31;;;;;;;36.65;14.63;;;12.10;99.90;;;;;;4935828;29;20399;-82
2022/10/29 06:33:56;;;;;;;31.88;14.60;;;12.10;99.90;;;;;;4918234;29;20051;-82
2022/10/29 06:36:22;;;;;;;28.63;14.02;;;12.10;99.90;;;;;;4922941;29;20503;-81
2022/10/29 06:38:48;;;;;;;28.10;14.30;;;12.10;99.90;;;;;;4938626;29;20046;-81
2022/10/29 06:41:14;;;;;;;39.13;15.52;;;12.10;99.90;;;;;;4938198;29;20043;-82
2022/10/29 06:43:40;;;;;;;27.23;14.98;;;12.20;99.90;;;;;;4917417;29;20464;-82
2022/10/29 06:46:06;;;;;;;31.55;15.30;;;12.20;99.90;;;;;;4937849;29;20039;-82
2022/10/29 06:48:32;;;;;;;28.33;15.35;;;12.20;99.90;;;;;;4923035;29;20039;-81
2022/10/29 06:50:59;;;;;;;28.50;14.98;;;12.30;99.90;;;;;;4938374;29;20032;-82
2022/10/29 06:53:25;;;;;;;28.58;14.70;;;12.20;99.90;;;;;;4950641;29;20062;-82
2022/10/29 06:55:52;;;;;;;27.50;15.35;;;12.20;99.90;;;;;;4927292;29;20051;-82
2022/10/29 06:58:19;;;;;;;34.63;16.00;;;12.30;99.90;;;;;;4954298;29;20050;-81
2022/10/29 07:00:46;;;;;;;29.60;15.32;;;12.30;99.90;;;;;;4918194;29;20086;-81
2022/10/29 07:03:18;;;;;;;25.60;14.40;;;12.30;99.90;;;;;;4937734;29;20047;-82
2022/10/29 07:05:44;;;;;;;29.75;15.70;;;12.40;99.90;;;;;;4932721;29;20046;-82
2022/10/29 07:08:11;;;;;;;26.95;15.02;;;12.40;99.90;;;;;;4922730;29;20134;-81
2022/10/29 07:10:37;;;;;;;30.23;15.65;;;12.40;99.90;;;;;;4922640;29;20043;-81
2022/10/29 07:13:03;;;;;;;27.75;15.32;;;12.40;99.90;;;;;;4938320;29;20043;-81
2022/10/29 07:15:29;;;;;;;29.00;15.60;;;12.40;99.90;;;;;;4921724;29;20039;-82
2022/10/29 07:18:03;;;;;;;24.92;15.27;;;12.50;99.90;;;;;;4938314;29;20043;-81
2022/10/29 07:20:32;;;;;;;33.78;15.32;;;12.50;99.90;;;;;;4937892;29;20097;-81
2022/10/29 07:22:59;;;;;;;28.20;14.23;;;12.50;99.90;;;;;;4934638;29;20074;-82
2022/10/29 07:25:25;;;;;;;34.10;16.67;;;12.50;99.90;;;;;;4937564;29;20086;-81
2022/10/29 07:27:51;;;;;;;30.70;16.23;;;12.60;99.90;;;;;;4921808;28;20074;-83
2022/10/29 07:30:17;;;;;;;27.10;15.35;;;12.60;99.90;;;;;;4920109;29;20082;-79
2022/10/29 07:32:42;;;;;;;27.52;15.30;;;12.60;99.90;;;;;;4937894;29;20098;-80
2022/10/29 07:35:08;;;;;;;25.63;16.10;;;12.60;99.90;;;;;;4922501;29;20106;-81
2022/10/29 07:37:34;;;;;;;27.40;15.13;;;12.60;99.90;;;;;;4922306;28;20035;-83
2022/10/29 07:40:00;;;;;;;28.02;14.95;;;12.70;99.90;;;;;;4925539;29;20042;-81
2022/10/29 07:42:25;;;;;;;24.48;14.57;;;12.70;99.90;;;;;;4926424;29;20043;-81
2022/10/29 07:44:51;;;;;;;27.05;14.82;;;12.70;99.90;;;;;;4942084;29;20039;-81
2022/10/29 07:47:17;;;;;;;27.08;16.20;;;12.80;99.90;;;;;;4957944;29;20043;-82
2022/10/29 07:49:42;;;;;;;31.48;16.67;;;12.80;99.90;;;;;;4926351;29;20125;-81
2022/10/29 07:52:09;;;;;;;30.45;15.63;;;12.80;99.90;;;;;;4942046;29;20483;-82
2022/10/29 07:54:34;;;;;;;31.58;16.23;;;12.80;99.90;;;;;;4939521;29;20037;-81
2022/10/29 07:57:00;;;;;;;35.20;16.85;;;12.90;99.90;;;;;;4909014;29;20050;-82
2022/10/29 07:59:26;;;;;;;33.88;19.15;;;12.90;99.90;;;;;;4905401;29;20094;-82
2022/10/29 08:01:51;;;;;;;35.38;16.95;;;12.90;99.90;;;;;;4925568;29;20492;-82
2022/10/29 08:04:17;;;;;;;39.60;18.80;;;13.10;99.90;;;;;;4925971;29;20102;-82
2022/10/29 08:06:43;;;;;;;37.20;18.73;;;13.10;99.90;;;;;;4926484;29;20476;-82
2022/10/29 08:09:12;;;;;;;32.33;18.23;;;13.10;99.90;;;;;;4942068;29;20133;-82
2022/10/29 08:11:38;;;;;;;33.75;18.67;;;13.20;99.90;;;;;;4927029;29;20039;-82
2022/10/29 08:14:04;;;;;;;33.50;17.60;;;13.20;99.90;;;;;;4942154;29;20035;-81
2022/10/29 08:16:30;;;;;;;46.70;18.63;;;13.30;99.90;;;;;;4943596;29;20073;-81
2022/10/29 08:18:55;;;;;;;36.60;17.48;;;13.30;99.90;;;;;;4950044;29;20105;-81
2022/10/29 08:21:22;;;;;;;41.05;20.02;;;13.40;99.90;;;;;;4933840;29;20047;-81
2022/10/29 08:23:48;;;;;;;40.33;20.13;;;13.40;99.90;;;;;;4948218;29;20423;-82
2022/10/29 08:26:14;;;;;;;52.00;19.90;;;13.50;99.90;;;;;;4942482;29;20046;-82
2022/10/29 08:28:41;;;;;;;43.00;20.88;;;13.50;99.90;;;;;;4926423;29;20466;-82
2022/10/29 08:31:08;;;;;;;38.85;18.75;;;13.50;99.90;;;;;;4925742;29;20126;-82
2022/10/29 08:33:33;;;;;;;42.30;19.55;;;13.60;99.90;;;;;;4952920;29;20617;-81
2022/10/29 08:35:59;;;;;;;41.30;20.15;;;13.70;99.90;;;;;;4937856;29;20139;-82
2022/10/29 08:38:25;;;;;;;44.80;19.02;;;13.70;99.90;;;;;;4922130;29;20495;-82
2022/10/29 08:41:36;;;;;;;38.45;19.60;;;13.70;99.90;;;;;;4939618;29;20031;-82
2022/10/29 08:44:24;;;;;;;42.35;19.92;;;13.80;99.90;;;;;;4931382;29;20043;-82
2022/10/29 08:47:05;;;;;;;42.50;19.60;;;13.80;99.90;;;;;;4940638;29;20403;-82
2022/10/29 08:49:45;;;;;;;36.42;19.13;;;13.90;99.90;;;;;;4940287;29;20415;-82
2022/10/29 08:52:19;;;;;;;43.38;19.73;;;14.00;99.90;;;;;;4956789;29;20509;-82
2022/10/29 08:54:57;;;;;;;62.08;22.58;;;14.00;99.90;;;;;;4940770;29;20483;-82
2022/10/29 08:57:24;;;;;;;36.85;20.92;;;14.10;99.90;;;;;;4937517;29;20103;-82
2022/10/29 09:00:02;;;;;;;35.85;19.55;;;14.20;99.90;;;;;;4937915;29;20046;-82
2022/10/29 09:02:29;;;;;;;52.85;22.38;;;14.20;99.90;;;;;;4921592;29;20047;-82
2022/10/29 09:04:55;;;;;;;45.30;21.30;;;14.30;99.90;;;;;;4937509;29;20555;-82
2022/10/29 09:07:38;;;;;;;47.22;22.42;;;14.30;99.90;;;;;;4906052;29;20131;-82
2022/10/29 09:10:16;;;;;;;56.05;21.88;;;14.40;99.90;;;;;;4931996;29;20047;-82
2022/10/29 09:13:16;;;;;;;49.35;21.92;;;14.50;99.90;;;;;;4940733;29;20047;-82
2022/10/29 09:15:56;;;;;;;44.05;20.75;;;14.60;99.90;;;;;;4940278;29;20381;-82
2022/10/29 09:18:43;;;;;;;38.50;19.80;;;14.70;99.90;;;;;;4940121;29;20541;-81
2022/10/29 09:21:30;;;;;;;75.20;24.38;;;14.80;99.90;;;;;;4955932;29;20118;-83
2022/10/29 09:24:17;;;;;;;42.13;20.23;;;14.90;99.90;;;;;;4940281;29;20375;-82
2022/10/29 09:27:02;;;;;;;32.10;20.85;;;15.00;99.90;;;;;;4940640;29;20046;-82
2022/10/29 09:29:46;;;;;;;35.60;19.45;;;15.10;99.90;;;;;;4940709;29;20078;-82
2022/10/29 09:32:30;;;;;;;36.78;18.73;;;15.20;99.90;;;;;;4955649;28;20098;-82
2022/10/29 09:35:04;;;;;;;34.08;19.48;;;15.30;99.90;;;;;;4939514;29;20480;-81
2022/10/29 09:37:42;;;;;;;29.88;19.50;;;15.40;99.90;;;;;;4939617;29;20044;-82
2022/10/29 09:40:32;;;;;;;30.10;18.23;;;15.40;99.90;;;;;;4955926;29;20039;-82
2022/10/29 09:43:00;;;;;;;31.98;17.63;;;15.40;99.90;;;;;;4931652;29;20047;-84
2022/10/29 09:45:47;;;;;;;31.92;18.17;;;15.50;99.90;;;;;;4940246;29;20519;-81
2022/10/29 09:48:17;;;;;;;31.85;19.33;;;15.50;99.90;;;;;;4955736;29;20047;-82
2022/10/29 09:51:09;;;;;;;34.55;19.33;;;15.60;99.90;;;;;;4954978;29;20039;-81
2022/10/29 09:53:35;;;;;;;35.10;20.48;;;15.60;99.90;;;;;;4939429;29;20047;-82
2022/10/29 09:56:05;;;;;;;31.42;18.55;;;15.70;99.90;;;;;;4924139;29;20078;-81
2022/10/29 09:58:36;;;;;;;31.25;19.50;;;15.70;99.90;;;;;;4939874;29;20500;-81
2022/10/29 10:01:02;;;;;;;30.02;19.27;;;15.80;99.90;;;;;;4938773;29;20126;-81
2022/10/29 10:03:36;;;;;;;34.33;19.65;;;15.90;99.90;;;;;;4924023;29;20125;-81
2022/10/29 10:06:06;;;;;;;31.65;19.40;;;15.90;99.90;;;;;;4939708;29;20391;-81
2022/10/29 10:08:33;;;;;;;33.42;19.80;;;16.00;99.90;;;;;;4955768;29;20126;-81
2022/10/29 10:11:04;;;;;;;35.55;20.10;;;16.10;99.90;;;;;;4938909;29;20496;-81
2022/10/29 10:13:34;;;;;;;41.13;20.35;;;16.10;99.90;;;;;;4939460;29;20047;-81
2022/10/29 10:16:03;;;;;;;33.50;19.63;;;16.20;99.90;;;;;;4947160;28;20448;-80
2022/10/29 10:18:31;;;;;;;36.63;19.67;;;16.20;99.90;;;;;;4942092;29;20039;-78
2022/10/29 10:21:05;;;;;;;36.58;20.00;;;16.20;99.90;;;;;;4930696;29;20040;-79
2022/10/29 10:23:50;;;;;;;32.88;18.95;;;16.30;99.90;;;;;;4920235;29;20043;-79
2022/10/29 10:26:34;;;;;;;36.20;19.50;;;16.40;99.90;;;;;;4947611;29;20047;-79
2022/10/29 10:29:10;;;;;;;38.50;19.25;;;16.50;99.90;;;;;;4952253;28;20491;-79
2022/10/29 10:31:37;;;;;;;32.63;19.65;;;16.70;99.90;;;;;;4936591;29;20055;-83
2022/10/29 10:34:23;;;;;;;30.55;19.00;;;16.70;99.90;;;;;;4933845;29;20122;-79
2022/10/29 10:37:03;;;;;;;;;;;16.80;99.90;;;;;;4938229;29;20035;-81
2022/10/29 10:39:34;;;;;;;31.13;17.52;;;16.80;99.90;;;;;;4923843;29;20449;-81
2022/10/29 10:42:03;;;;;;;26.77;17.63;;;16.80;99.90;;;;;;4938214;29;20042;-81
2022/10/29 10:44:30;;;;;;;34.95;19.00;;;16.80;99.90;;;;;;4938998;29;20078;-81
2022/10/29 10:47:02;;;;;;;29.27;18.55;;;16.80;99.90;;;;;;4922507;29;20050;-81
2022/10/29 10:49:35;;;;;;;35.88;18.67;;;16.90;99.90;;;;;;4919626;29;20131;-81
2022/10/29 10:52:14;;;;;;;28.30;17.33;;;16.90;99.90;;;;;;4919556;29;20051;-82
2022/10/29 10:54:58;;;;;;;31.58;17.80;;;17.00;99.90;;;;;;4923330;29;20047;-81
2022/10/29 10:57:28;;;;;;;28.92;18.38;;;17.00;99.90;;;;;;4937685;29;20110;-81
2022/10/29 11:00:03;;;;;;;34.15;18.27;;;17.10;99.90;;;;;;4947342;29;20530;-81
2022/10/29 11:02:35;;;;;;;33.13;17.67;;;17.10;99.90;;;;;;4951558;29;20046;-81
2022/10/29 11:05:21;;;;;;;29.17;16.98;;;17.20;99.90;;;;;;4927985;29;20087;-80
2022/10/29 11:08:23;;;;;;;27.50;17.25;;;17.30;99.90;;;;;;4936033;29;20047;-80
2022/10/29 11:10:55;;;;;;;35.08;17.75;;;17.30;99.90;;;;;;4918643;29;20062;-81
2022/10/29 11:13:24;;;;;;;31.52;17.73;;;17.40;99.90;;;;;;4934842;29;20164;-81
2022/10/29 11:16:16;;;;;;;28.67;16.77;;;17.40;99.90;;;;;;4937509;29;20043;-80
2022/10/29 11:18:59;;;;;;;30.17;17.38;;;17.50;99.90;;;;;;4950142;29;20071;-80
2022/10/29 11:21:36;;;;;;;25.60;17.05;;;17.50;99.90;;;;;;4919459;29;20039;-81
2022/10/29 11:24:06;;;;;;;26.52;15.65;;;17.50;99.90;;;;;;4935842;29;20047;-81
2022/10/29 11:26:45;;;;;;;25.60;12.90;;;17.60;99.90;;;;;;4935597;29;20396;-81
2022/10/29 11:29:35;;;;;;;23.27;14.70;;;17.70;99.90;;;;;;4934410;29;20031;-81
2022/10/29 11:32:11;;;;;;;25.25;13.27;;;17.70;99.90;;;;;;4938086;29;20130;-81
2022/10/29 11:34:36;;;;;;;28.73;15.93;;;17.70;99.90;;;;;;4923046;29;20044;-82
2022/10/29 11:37:22;;;;;;;28.30;15.60;;;17.70;99.90;;;;;;4929660;29;20436;-82
2022/10/29 11:40:10;;;;;;;34.58;16.55;;;17.70;99.90;;;;;;4935802;29;20761;-81
2022/10/29 11:42:38;;;;;;;28.52;16.08;;;17.80;99.90;;;;;;4952539;29;20051;-80
2022/10/29 11:45:04;;;;;;;25.77;15.27;;;17.80;99.90;;;;;;4953839;29;20054;-81
2022/10/29 11:48:33;;;;;;;27.27;14.88;;;17.90;99.90;;;;;;4937192;29;20075;-80
2022/10/29 11:51:18;;;;;;;25.88;13.38;;;18.30;99.90;;;;;;4883859;29;20591;-80
2022/10/29 11:53:54;;;;;;;22.85;13.90;;;18.70;99.90;;;;;;4950266;29;20047;-81
2022/10/29 11:56:41;;;;;;;24.90;13.13;;;19.00;99.90;;;;;;4938773;29;20044;-82
2022/10/29 11:59:27;;;;;;;20.40;13.57;;;19.00;99.90;;;;;;4937823;29;20483;-81
2022/10/29 12:02:20;;;;;;;24.85;13.68;;;19.10;99.90;;;;;;4934998;29;20045;-82
2022/10/29 12:04:51;;;;;;;25.23;13.20;;;19.00;99.90;;;;;;4935005;29;20047;-82
2022/10/29 12:07:17;;;;;;;25.70;12.93;;;19.00;99.90;;;;;;4919578;29;20043;-81
2022/10/29 12:10:15;;;;;;;27.80;12.93;;;18.90;99.90;;;;;;4935759;29;20050;-82
2022/10/29 12:12:48;;;;;;;27.55;13.45;;;18.80;99.90;;;;;;4947307;29;20423;-82
2022/10/29 12:15:35;;;;;;;27.75;14.32;;;18.80;99.90;;;;;;4954547;29;20106;-82
2022/10/29 12:18:39;;;;;;;25.58;13.23;;;18.70;99.90;;;;;;4954938;29;20043;-82
2022/10/29 12:21:08;;;;;;;28.85;12.48;;;18.70;99.90;;;;;;4938589;29;20122;-82
2022/10/29 12:24:08;;;;;;;24.80;13.15;;;18.70;99.90;;;;;;4937707;29;20047;-82
2022/10/29 12:26:47;;;;;;;26.50;13.13;;;18.70;99.90;;;;;;4941738;29;20036;-82
2022/10/29 12:29:19;;;;;;;20.50;12.32;;;18.70;99.90;;;;;;4941910;29;20126;-82
2022/10/29 12:32:02;;;;;;;24.90;12.80;;;18.70;99.90;;;;;;4956886;28;20062;-82
2022/10/29 12:34:41;;;;;;;24.60;12.05;;;18.80;99.90;;;;;;4941718;29;20051;-82
2022/10/29 12:37:34;;;;;;;20.50;12.35;;;18.80;99.90;;;;;;4957785;29;20097;-82
2022/10/29 12:40:11;;;;;;;25.55;11.93;;;18.90;99.90;;;;;;4941941;29;20078;-81
2022/10/29 12:42:37;;;;;;;24.70;11.70;;;18.80;99.90;;;;;;4942535;29;20043;-81
2022/10/29 12:45:29;;;;;;;27.92;11.82;;;18.80;99.90;;;;;;4941697;29;20069;-81
2022/10/29 12:48:25;;;;;;;26.92;11.30;;;18.80;99.90;;;;;;4922629;29;20044;-83
2022/10/29 12:51:19;;;;;;;22.52;11.52;;;18.90;99.90;;;;;;4954200;29;20044;-81